createdAt,value
2018-04-07T00:00:56.578Z,66.90
2018-04-07T00:03:24.114Z,66.80
2018-04-07T00:05:51.303Z,66.70
2018-04-07T00:08:18.449Z,66.90
2018-04-07T00:10:45.706Z,66.90
2018-04-07T00:13:12.716Z,67.20
2018-04-07T00:15:40.510Z,67.90
2018-04-07T00:18:07.511Z,67.80
2018-04-07T00:20:34.572Z,67.80
2018-04-07T00:23:01.604Z,67.70
2018-04-07T00:25:28.626Z,68.10
2018-04-07T00:27:55.657Z,68.00
2018-04-07T00:30:23.414Z,68.30
2018-04-07T00:32:50.430Z,68.30
2018-04-07T00:35:17.474Z,68.40
2018-04-07T00:37:44.538Z,68.30
2018-04-07T00:40:11.593Z,68.50
2018-04-07T00:42:38.922Z,68.40
2018-04-07T00:45:05.993Z,68.70
2018-04-07T00:47:33.090Z,69.00
2018-04-07T00:50:00.088Z,69.20
2018-04-07T00:52:33.164Z,68.30
2018-04-07T00:55:00.191Z,69.10
2018-04-07T00:57:28.026Z,69.20
2018-04-07T00:59:55.472Z,69.10
2018-04-07T01:02:22.609Z,69.10
2018-04-07T01:04:49.930Z,69.10
2018-04-07T01:07:16.997Z,69.10
2018-04-07T01:09:44.130Z,69.00
2018-04-07T01:12:11.190Z,69.50
2018-04-07T01:14:38.326Z,70.00
2018-04-07T01:17:05.414Z,70.20
2018-04-07T01:19:32.444Z,70.20
2018-04-07T01:21:59.462Z,69.70
2018-04-07T01:24:26.485Z,69.00
2018-04-07T01:26:53.579Z,69.20
2018-04-07T01:29:21.762Z,69.50
2018-04-07T01:31:49.230Z,69.30
2018-04-07T01:34:16.353Z,69.80
2018-04-07T01:36:44.969Z,69.80
2018-04-07T01:39:13.916Z,69.80
2018-04-07T01:41:40.921Z,69.80
2018-04-07T01:44:07.929Z,70.00
2018-04-07T01:46:35.008Z,70.10
2018-04-07T01:49:02.088Z,70.10
2018-04-07T01:51:29.089Z,70.10
2018-04-07T01:53:56.129Z,69.90
2018-04-07T01:56:23.181Z,69.60
2018-04-07T01:58:50.161Z,70.60
2018-04-07T02:01:17.185Z,69.60
2018-04-07T02:03:44.207Z,70.00
2018-04-07T02:06:11.752Z,70.20
2018-04-07T02:08:38.899Z,70.40
2018-04-07T02:11:06.635Z,70.70
2018-04-07T02:13:33.653Z,70.70
2018-04-07T02:16:00.694Z,71.40
2018-04-07T02:18:27.766Z,70.30
2018-04-07T02:20:54.846Z,70.70
2018-04-07T02:23:22.643Z,70.50
2018-04-07T02:25:50.734Z,70.50
2018-04-07T02:28:17.762Z,70.70
2018-04-07T02:30:44.798Z,70.30
2018-04-07T02:33:11.892Z,70.40
2018-04-07T02:35:39.006Z,70.60
2018-04-07T02:38:06.047Z,70.50
2018-04-07T02:40:33.050Z,70.90
2018-04-07T02:43:00.833Z,70.80
2018-04-07T02:45:28.624Z,70.60
2018-04-07T02:47:56.455Z,71.40
2018-04-07T02:50:23.492Z,71.40
2018-04-07T02:52:50.493Z,72.30
2018-04-07T02:55:17.531Z,71.90
2018-04-07T02:57:45.612Z,71.40
2018-04-07T03:00:12.639Z,71.50
2018-04-07T03:02:39.681Z,71.10
2018-04-07T03:05:06.685Z,71.00
2018-04-07T03:07:35.118Z,71.50
2018-04-07T03:10:02.235Z,71.40
2018-04-07T03:12:29.978Z,71.50
2018-04-07T03:14:56.981Z,71.40
2018-04-07T03:17:24.406Z,71.30
2018-04-07T03:19:51.482Z,71.10
2018-04-07T03:22:18.568Z,71.40
2018-04-07T03:24:45.625Z,71.10
2018-04-07T03:27:13.458Z,71.80
2018-04-07T03:29:40.745Z,71.80
2018-04-07T03:32:08.069Z,72.00
2018-04-07T03:34:35.240Z,71.90
2018-04-07T03:37:02.249Z,71.40
2018-04-07T03:39:29.283Z,71.80
2018-04-07T03:41:56.329Z,71.90
2018-04-07T03:44:23.376Z,71.70
2018-04-07T03:46:50.507Z,72.30
2018-04-07T03:49:17.863Z,72.20
2018-04-07T03:51:45.585Z,71.80
2018-04-07T03:54:12.753Z,71.80
2018-04-07T03:56:40.133Z,71.80
2018-04-07T03:59:08.034Z,71.80
2018-04-07T04:01:35.109Z,71.80
2018-04-07T04:04:02.174Z,71.80
2018-04-07T04:06:29.277Z,71.80
2018-04-07T04:08:57.055Z,71.40
2018-04-07T04:11:24.945Z,72.00
2018-04-07T04:13:51.958Z,71.90
2018-04-07T04:16:19.015Z,72.30
2018-04-07T04:18:46.013Z,72.00
2018-04-07T04:21:13.777Z,71.60
2018-04-07T04:23:41.550Z,72.50
2018-04-07T04:26:08.660Z,72.40
2018-04-07T04:28:35.697Z,73.10
2018-04-07T04:31:02.701Z,73.10
2018-04-07T04:33:29.712Z,73.20
2018-04-07T04:35:56.823Z,73.20
2018-04-07T04:38:23.837Z,72.90
2018-04-07T04:40:51.618Z,72.90
2018-04-07T04:43:18.625Z,72.90
2018-04-07T04:45:46.439Z,72.60
2018-04-07T04:48:13.490Z,72.60
2018-04-07T04:50:40.490Z,72.70
2018-04-07T04:53:08.285Z,73.00
2018-04-07T04:55:36.081Z,72.90
2018-04-07T04:58:03.097Z,72.90
2018-04-07T05:00:30.822Z,72.50
2018-04-07T05:02:57.821Z,72.50
2018-04-07T05:05:24.842Z,72.10
2018-04-07T05:07:51.885Z,72.00
2018-04-07T05:10:19.683Z,71.70
2018-04-07T05:12:46.827Z,72.20
2018-04-07T05:15:13.934Z,72.20
2018-04-07T05:17:41.049Z,72.30
2018-04-07T05:20:08.082Z,71.90
2018-04-07T05:22:35.224Z,72.00
2018-04-07T05:25:03.362Z,71.10
2018-04-07T05:27:31.223Z,71.50
2018-04-07T05:29:59.026Z,71.20
2018-04-07T05:32:26.029Z,71.10
2018-04-07T05:34:53.013Z,70.80
2018-04-07T05:37:21.647Z,70.90
2018-04-07T05:39:49.574Z,70.90
2018-04-07T05:42:16.649Z,70.80
2018-04-07T05:44:43.640Z,70.40
2018-04-07T05:47:11.434Z,69.70
2018-04-07T05:49:38.602Z,69.60
2018-04-07T05:52:05.620Z,68.30
2018-04-07T05:54:32.674Z,68.20
2018-04-07T05:56:59.726Z,67.70
2018-04-07T05:59:26.742Z,67.60
2018-04-07T06:01:54.580Z,67.00
2018-04-07T06:04:21.594Z,66.90
2018-04-07T06:06:48.910Z,66.10
2018-04-07T06:09:15.929Z,65.90
2018-04-07T06:11:43.038Z,65.60
2018-04-07T06:14:10.393Z,64.60
2018-04-07T06:16:37.510Z,65.30
2018-04-07T06:19:04.542Z,64.60
2018-04-07T06:21:31.538Z,64.10
2018-04-07T06:23:58.612Z,64.30
2018-04-07T06:26:25.754Z,64.60
2018-04-07T06:28:52.765Z,64.60
2018-04-07T06:31:20.068Z,64.00
2018-04-07T06:33:48.190Z,62.30
2018-04-07T06:36:15.966Z,62.40
2018-04-07T06:38:42.969Z,62.30
2018-04-07T06:41:10.717Z,61.70
2018-04-07T06:43:37.795Z,61.60
2018-04-07T06:46:05.954Z,61.10
2018-04-07T06:48:32.985Z,61.10
2018-04-07T06:51:00.062Z,60.90
2018-04-07T06:53:27.139Z,60.00
2018-04-07T06:55:54.662Z,59.90
2018-04-07T06:58:21.867Z,59.50
2018-04-07T07:00:48.882Z,59.10
2018-04-07T07:03:15.899Z,59.30
2018-04-07T07:05:42.910Z,59.50
2018-04-07T07:08:09.936Z,60.50
2018-04-07T07:10:36.944Z,60.00
2018-04-07T07:13:04.698Z,58.90
2018-04-07T07:15:32.342Z,58.90
2018-04-07T07:17:59.353Z,59.00
2018-04-07T07:20:26.524Z,59.10
2018-04-07T07:22:53.557Z,59.00
2018-04-07T07:25:20.597Z,58.90
2018-04-07T07:27:47.602Z,58.40
2018-04-07T07:30:15.366Z,58.60
2018-04-07T07:32:43.467Z,57.50
2018-04-07T07:35:10.706Z,57.40
2018-04-07T07:37:37.809Z,57.50
2018-04-07T07:40:04.874Z,57.00
2018-04-07T07:42:32.286Z,57.00
2018-04-07T07:44:59.435Z,57.60
2018-04-07T07:47:26.657Z,57.40
2018-04-07T07:49:53.649Z,57.90
2018-04-07T07:52:20.922Z,57.40
2018-04-07T07:54:48.745Z,56.90
2018-04-07T07:57:15.946Z,56.90
2018-04-07T07:59:43.070Z,56.70
2018-04-07T08:02:10.143Z,59.40
2018-04-07T08:04:37.243Z,58.70
2018-04-07T08:07:04.338Z,59.00
2018-04-07T08:09:31.445Z,55.80
2018-04-07T08:11:58.910Z,57.40
2018-04-07T08:14:26.874Z,57.00
2018-04-07T08:16:54.166Z,54.00
2018-04-07T08:19:21.194Z,53.50
2018-04-07T08:21:48.229Z,51.60
2018-04-07T08:24:15.239Z,52.50
2018-04-07T08:26:43.059Z,48.70
2018-04-07T08:29:10.459Z,48.60
2018-04-07T08:31:37.577Z,48.30
2018-04-07T08:34:04.618Z,46.40
2018-04-07T08:36:31.639Z,46.40
2018-04-07T08:38:58.645Z,46.80
2018-04-07T08:41:25.653Z,48.30
2018-04-07T08:43:52.688Z,49.30
2018-04-07T08:46:19.979Z,47.60
2018-04-07T08:48:47.029Z,45.50
2018-04-07T08:51:14.263Z,45.20
2018-04-07T08:53:41.318Z,47.00
2018-04-07T08:56:08.425Z,47.00
2018-04-07T08:58:35.433Z,45.80
2018-04-07T09:01:03.188Z,44.50
2018-04-07T09:03:30.206Z,44.40
2018-04-07T09:05:59.706Z,44.30
2018-04-07T09:08:26.818Z,44.30
2018-04-07T09:10:53.858Z,42.80
2018-04-07T09:13:20.873Z,42.30
2018-04-07T09:15:47.977Z,44.10
2018-04-07T09:18:15.134Z,43.00
2018-04-07T09:20:42.125Z,42.40
2018-04-07T09:23:09.190Z,44.30
2018-04-07T09:25:36.302Z,42.80
2018-04-07T09:28:03.489Z,42.90
2018-04-07T09:30:30.693Z,42.10
2018-04-07T09:32:57.937Z,43.50
2018-04-07T09:35:26.159Z,45.20
2018-04-07T09:37:53.484Z,44.50
2018-04-07T09:40:20.742Z,45.30
2018-04-07T09:42:47.915Z,43.90
2018-04-07T09:45:14.953Z,46.10
2018-04-07T09:47:42.081Z,44.80
2018-04-07T09:50:09.097Z,43.80
2018-04-07T09:52:36.110Z,44.80
2018-04-07T09:55:03.100Z,44.70
2018-04-07T09:57:31.161Z,45.10
2018-04-07T09:59:58.207Z,42.40
2018-04-07T10:02:25.257Z,43.80
2018-04-07T10:04:52.302Z,42.20
2018-04-07T10:07:19.358Z,43.60
2018-04-07T10:09:46.573Z,42.10
2018-04-07T10:12:13.610Z,41.10
2018-04-07T10:14:42.142Z,41.40
2018-04-07T10:17:10.254Z,41.40
2018-04-07T10:19:38.130Z,42.10
2018-04-07T10:22:05.927Z,40.60
2018-04-07T10:24:33.687Z,40.70
2018-04-07T10:27:00.761Z,40.70
2018-04-07T10:29:27.777Z,38.20
2018-04-07T10:31:55.554Z,37.30
2018-04-07T10:34:22.557Z,37.20
2018-04-07T10:36:49.669Z,38.70
2018-04-07T10:39:16.678Z,37.00
2018-04-07T10:41:43.703Z,38.00
2018-04-07T10:44:11.241Z,39.20
2018-04-07T10:46:38.366Z,37.30
2018-04-07T10:49:05.408Z,36.30
2018-04-07T10:51:32.401Z,35.20
2018-04-07T10:54:00.161Z,37.30
2018-04-07T10:56:27.278Z,37.30
2018-04-07T10:58:54.304Z,36.80
2018-04-07T11:01:21.339Z,35.60
2018-04-07T11:03:48.357Z,36.60
2018-04-07T11:06:15.342Z,34.50
2018-04-07T11:08:43.086Z,35.50
2018-04-07T11:11:10.833Z,33.20
2018-04-07T11:13:37.847Z,33.20
2018-04-07T11:16:05.937Z,32.20
2018-04-07T11:18:32.955Z,31.20
2018-04-07T11:21:00.032Z,33.00
2018-04-07T11:23:27.141Z,30.60
2018-04-07T11:25:54.341Z,31.70
2018-04-07T11:28:21.359Z,30.80
2018-04-07T11:30:48.364Z,32.60
2018-04-07T11:33:15.427Z,34.00
2018-04-07T11:35:42.503Z,32.20
2018-04-07T11:38:09.558Z,28.70
2018-04-07T11:40:37.352Z,29.10
2018-04-07T11:43:05.133Z,27.70
2018-04-07T11:45:34.367Z,27.70
2018-04-07T11:48:01.403Z,26.50
2018-04-07T11:50:28.475Z,27.10
2018-04-07T11:52:55.465Z,27.90
2018-04-07T11:55:22.777Z,27.50
2018-04-07T11:57:49.802Z,29.00
2018-04-07T12:00:17.522Z,27.20
2018-04-07T12:02:44.550Z,27.20
2018-04-07T12:05:19.265Z,23.90
2018-04-07T12:07:46.413Z,23.80
2018-04-07T12:10:13.449Z,23.70
2018-04-07T12:12:40.473Z,22.30
2018-04-07T12:15:08.213Z,21.30
2018-04-07T12:17:36.029Z,20.30
2018-04-07T12:20:03.359Z,20.30
2018-04-07T12:22:31.078Z,19.80
2018-04-07T12:24:58.368Z,19.70
2018-04-07T12:27:25.438Z,19.70
2018-04-07T12:29:52.457Z,19.90
2018-04-07T12:32:20.205Z,19.60
2018-04-07T12:34:47.969Z,18.60
2018-04-07T12:37:15.052Z,18.60
2018-04-07T12:39:42.072Z,17.50
2018-04-07T12:42:09.808Z,18.00
2018-04-07T12:44:36.821Z,18.00
2018-04-07T12:47:04.269Z,18.40
2018-04-07T12:49:31.266Z,18.40
2018-04-07T12:51:58.278Z,19.40
2018-04-07T12:54:25.271Z,21.20
2018-04-07T12:56:53.099Z,18.20
2018-04-07T12:59:20.134Z,18.20
2018-04-07T13:01:47.196Z,18.70
2018-04-07T13:04:14.236Z,18.60
2018-04-07T13:06:41.265Z,18.50
2018-04-07T13:09:08.994Z,17.50
2018-04-07T13:11:36.735Z,18.90
2018-04-07T13:14:03.716Z,18.30
2018-04-07T13:16:30.825Z,18.60
2018-04-07T13:18:57.833Z,19.70
2018-04-07T13:21:24.874Z,20.10
2018-04-07T13:23:51.910Z,21.00
2018-04-07T13:26:19.102Z,20.90
2018-04-07T13:28:46.338Z,21.50
2018-04-07T13:31:13.368Z,22.80
2018-04-07T13:33:41.117Z,24.40
2018-04-07T13:36:08.198Z,24.40
2018-04-07T13:38:35.188Z,23.60
2018-04-07T13:41:02.960Z,24.80
2018-04-07T13:43:30.701Z,25.60
2018-04-07T13:45:57.743Z,25.10
2018-04-07T13:48:25.545Z,25.50
2018-04-07T13:50:53.358Z,24.80
2018-04-07T13:53:20.384Z,24.80
2018-04-07T13:55:48.458Z,25.10
2018-04-07T13:58:15.481Z,26.50
2018-04-07T14:00:42.512Z,25.70
2018-04-07T14:03:09.594Z,26.50
2018-04-07T14:05:36.658Z,27.50
2018-04-07T14:08:03.714Z,28.80
2018-04-07T14:10:30.745Z,28.70
2018-04-07T14:12:57.786Z,28.60
2018-04-07T14:15:24.839Z,29.90
2018-04-07T14:17:52.606Z,29.40
2018-04-07T14:20:19.638Z,29.40
2018-04-07T14:22:47.534Z,28.50
2018-04-07T14:25:14.596Z,29.80
2018-04-07T14:27:42.636Z,29.40
2018-04-07T14:30:09.642Z,29.60
2018-04-07T14:32:37.405Z,30.00
2018-04-07T14:35:05.190Z,30.90
2018-04-07T14:37:33.306Z,30.90
2018-04-07T14:40:00.323Z,32.10
2018-04-07T14:42:27.341Z,31.50
2018-04-07T14:44:54.349Z,30.00
2018-04-07T14:47:26.536Z,30.90
2018-04-07T14:49:53.773Z,32.70
2018-04-07T14:52:21.148Z,33.60
2018-04-07T14:54:48.325Z,33.80
2018-04-07T14:57:16.455Z,34.80
2018-04-07T14:59:44.267Z,34.40
2018-04-07T15:02:11.352Z,34.30
2018-04-07T15:04:38.478Z,34.60
2018-04-07T15:07:05.621Z,35.90
2018-04-07T15:09:32.722Z,36.30
2018-04-07T15:11:59.814Z,36.60
2018-04-07T15:14:27.089Z,37.40
2018-04-07T15:16:57.594Z,39.50
2018-04-07T15:19:27.631Z,41.20
2018-04-07T15:21:56.117Z,41.10
2018-04-07T15:24:23.142Z,42.40
2018-04-07T15:26:50.313Z,43.20
2018-04-07T15:29:18.531Z,43.50
2018-04-07T15:31:46.584Z,44.20
2018-04-07T15:34:13.772Z,45.60
2018-04-07T15:36:41.099Z,45.30
2018-04-07T15:39:08.305Z,45.40
2018-04-07T15:41:35.444Z,46.00
2018-04-07T15:44:03.315Z,46.20
2018-04-07T15:46:30.509Z,46.20
2018-04-07T15:48:58.821Z,47.30
2018-04-07T15:51:28.254Z,47.70
2018-04-07T15:53:55.463Z,47.60
2018-04-07T15:56:23.395Z,46.80
2018-04-07T15:58:50.674Z,46.80
2018-04-07T16:01:17.864Z,46.50
2018-04-07T16:03:45.203Z,47.10
2018-04-07T16:06:13.113Z,47.70
2018-04-07T16:08:41.052Z,49.00
2018-04-07T16:11:08.341Z,48.40
2018-04-07T16:13:35.542Z,48.70
2018-04-07T16:16:02.775Z,48.50
2018-04-07T16:18:29.941Z,48.70
2018-04-07T16:20:57.206Z,48.80
2018-04-07T16:23:24.422Z,49.20
2018-04-07T16:25:51.575Z,48.60
2018-04-07T16:28:19.515Z,48.60
2018-04-07T16:30:47.459Z,49.30
2018-04-07T16:33:14.534Z,49.20
2018-04-07T16:35:42.146Z,49.20
2018-04-07T16:38:09.514Z,49.50
2018-04-07T16:40:37.514Z,50.80
2018-04-07T16:43:04.815Z,50.70
2018-04-07T16:45:32.796Z,50.70
2018-04-07T16:47:59.960Z,51.40
2018-04-07T16:50:28.243Z,51.90
2018-04-07T16:52:57.827Z,52.10
2018-04-07T16:55:29.800Z,52.10
2018-04-07T16:57:59.074Z,53.00
2018-04-07T17:00:26.092Z,52.90
2018-04-07T17:02:53.333Z,53.10
2018-04-07T17:05:21.458Z,53.60
2018-04-07T17:07:48.599Z,53.90
2018-04-07T17:10:15.914Z,54.80
2018-04-07T17:12:43.115Z,54.40
2018-04-07T17:15:12.395Z,56.00
2018-04-07T17:17:43.545Z,56.10
2018-04-07T17:20:11.694Z,56.00
2018-04-07T17:22:55.701Z,56.00
2018-04-07T17:25:23.877Z,55.70
2018-04-07T17:27:57.390Z,56.60
2018-04-07T17:30:25.758Z,56.50
2018-04-07T17:32:54.116Z,55.00
2018-04-07T17:35:21.193Z,55.00
2018-04-07T17:37:48.425Z,55.00
2018-04-07T17:40:15.537Z,54.90
2018-04-07T17:42:42.714Z,55.90
2018-04-07T17:45:09.967Z,56.60
2018-04-07T17:47:37.266Z,56.40
2018-04-07T17:50:04.522Z,56.60
2018-04-07T17:52:31.729Z,56.30
2018-04-07T17:54:59.943Z,56.30
2018-04-07T17:57:28.069Z,56.10
2018-04-07T17:59:55.256Z,56.00
2018-04-07T18:02:22.500Z,56.50
2018-04-07T18:04:49.710Z,56.40
2018-04-07T18:07:18.863Z,56.50
2018-04-07T18:09:46.090Z,56.60
2018-04-07T18:12:13.122Z,56.70
2018-04-07T18:14:40.133Z,56.50
2018-04-07T18:17:07.251Z,56.00
2018-04-07T18:19:34.307Z,55.80
2018-04-07T18:22:01.337Z,55.60
2018-04-07T18:24:28.617Z,55.60
2018-04-07T18:26:56.466Z,55.60
2018-04-07T18:29:23.923Z,55.50
2018-04-07T18:31:50.935Z,55.40
2018-04-07T18:34:18.009Z,55.40
2018-04-07T18:36:45.218Z,54.60
2018-04-07T18:39:12.253Z,54.70
2018-04-07T18:41:39.320Z,54.60
2018-04-07T18:44:07.253Z,54.50
2018-04-07T18:46:34.566Z,54.50
2018-04-07T18:49:02.565Z,55.00
2018-04-07T18:51:30.009Z,55.10
2018-04-07T18:53:57.098Z,54.60
2018-04-07T18:56:25.439Z,54.80
2018-04-07T18:58:52.942Z,54.50
2018-04-07T19:01:20.714Z,55.40
2018-04-07T19:03:48.473Z,55.70
2018-04-07T19:06:18.632Z,55.90
2018-04-07T19:08:45.754Z,55.80
2018-04-07T19:11:13.654Z,55.70
2018-04-07T19:13:40.975Z,55.70
2018-04-07T19:16:08.075Z,56.20
2018-04-07T19:18:35.369Z,56.00
2018-04-07T19:21:02.635Z,55.90
2018-04-07T19:23:30.467Z,56.00
2018-04-07T19:25:59.524Z,56.00
2018-04-07T19:28:26.552Z,56.00
2018-04-07T19:30:53.644Z,56.20
2018-04-07T19:33:21.043Z,56.40
2018-04-07T19:35:48.223Z,56.60
2018-04-07T19:38:15.266Z,57.50
2018-04-07T19:40:42.249Z,58.20
2018-04-07T19:43:09.345Z,59.00
2018-04-07T19:45:36.415Z,59.00
2018-04-07T19:48:03.509Z,59.00
2018-04-07T19:50:31.253Z,58.80
2018-04-07T19:52:58.297Z,58.40
2018-04-07T19:55:25.528Z,58.90
2018-04-07T19:57:53.622Z,59.20
2018-04-07T20:00:21.207Z,59.10
2018-04-07T20:02:48.291Z,59.80
2018-04-07T20:05:15.409Z,59.70
2018-04-07T20:07:42.547Z,59.90
2018-04-07T20:10:09.763Z,60.50
2018-04-07T20:12:36.875Z,60.70
2018-04-07T20:15:03.900Z,60.50
2018-04-07T20:17:31.738Z,61.90
2018-04-07T20:19:58.794Z,60.90
2018-04-07T20:22:25.841Z,61.60
2018-04-07T20:24:52.850Z,62.70
2018-04-07T20:27:19.969Z,61.40
2018-04-07T20:29:47.049Z,62.50
2018-04-07T20:32:14.084Z,62.50
2018-04-07T20:34:41.087Z,62.50
2018-04-07T20:37:08.238Z,62.90
2018-04-07T20:39:35.281Z,62.50
2018-04-07T20:42:20.793Z,63.00
2018-04-07T20:44:48.573Z,63.30
2018-04-07T20:47:15.646Z,63.30
2018-04-07T20:49:42.686Z,63.80
2018-04-07T20:52:09.764Z,63.80
2018-04-07T20:54:37.050Z,63.60
2018-04-07T20:57:04.855Z,64.30
2018-04-07T20:59:31.910Z,64.30
2018-04-07T21:01:59.843Z,64.40
2018-04-07T21:04:26.879Z,64.30
2018-04-07T21:06:54.707Z,64.70
2018-04-07T21:09:21.781Z,64.60
2018-04-07T21:11:48.799Z,65.90
2018-04-07T21:14:15.839Z,64.80
2018-04-07T21:16:42.896Z,64.90
2018-04-07T21:19:09.970Z,64.70
2018-04-07T21:21:36.961Z,64.70
2018-04-07T21:24:04.073Z,64.70
2018-04-07T21:26:32.101Z,65.20
2018-04-07T21:28:59.122Z,65.20
2018-04-07T21:31:26.138Z,65.10
2018-04-07T21:33:53.913Z,65.30
2018-04-07T21:36:21.728Z,65.90
2018-04-07T21:38:48.798Z,66.70
2018-04-07T21:41:15.803Z,65.60
2018-04-07T21:43:42.827Z,66.10
2018-04-07T21:46:09.903Z,66.10
2018-04-07T21:48:36.986Z,65.90
2018-04-07T21:51:04.010Z,66.10
2018-04-07T21:53:31.054Z,65.90
2018-04-07T21:55:58.934Z,66.10
2018-04-07T21:58:25.953Z,66.00
2018-04-07T22:00:52.996Z,66.10
2018-04-07T22:03:20.015Z,66.20
2018-04-07T22:05:47.113Z,66.40
2018-04-07T22:08:14.184Z,66.40
2018-04-07T22:10:42.002Z,66.90
2018-04-07T22:13:09.094Z,66.90
2018-04-07T22:15:36.085Z,66.90
2018-04-07T22:18:03.882Z,67.00
2018-04-07T22:20:30.947Z,67.00
2018-04-07T22:22:57.969Z,67.00
2018-04-07T22:25:25.043Z,67.00
2018-04-07T22:27:52.214Z,67.00
2018-04-07T22:30:20.040Z,67.30
2018-04-07T22:32:47.078Z,67.20
2018-04-07T22:35:14.094Z,67.00
2018-04-07T22:37:41.180Z,67.20
2018-04-07T22:40:08.189Z,67.10
2018-04-07T22:42:35.225Z,66.90
2018-04-07T22:45:03.011Z,67.10
2018-04-07T22:47:30.930Z,67.00
2018-04-07T22:49:57.949Z,67.00
2018-04-07T22:52:24.978Z,67.00
2018-04-07T22:54:52.004Z,67.00
2018-04-07T22:57:20.005Z,67.20
2018-04-07T22:59:47.027Z,67.50
2018-04-07T23:02:14.762Z,67.60
2018-04-07T23:04:41.786Z,67.50
2018-04-07T23:07:08.933Z,67.70
2018-04-07T23:09:35.993Z,67.90
2018-04-07T23:12:03.058Z,68.30
2018-04-07T23:14:30.068Z,68.40
2018-04-07T23:16:57.109Z,68.30
2018-04-07T23:19:24.118Z,68.60
2018-04-07T23:21:51.852Z,68.40
2018-04-07T23:24:19.109Z,68.30
2018-04-07T23:26:46.207Z,67.90
2018-04-07T23:29:13.245Z,68.40
2018-04-07T23:31:40.302Z,68.50
2018-04-07T23:34:07.314Z,68.20
2018-04-07T23:36:34.439Z,68.50
2018-04-07T23:39:02.312Z,69.00
2018-04-07T23:41:29.320Z,68.90
2018-04-07T23:43:56.337Z,68.40
2018-04-07T23:46:23.422Z,68.70
2018-04-07T23:48:50.638Z,68.80
2018-04-07T23:51:17.685Z,68.90
2018-04-07T23:53:44.703Z,68.90
2018-04-07T23:56:12.855Z,69.60
2018-04-07T23:58:39.852Z,68.70
